createdAt,value
2019-02-11T00:00:57.060Z,18.05
2019-02-11T00:01:57.540Z,18.05
2019-02-11T00:02:56.933Z,18.05
2019-02-11T00:04:00.273Z,18.04
2019-02-11T00:04:57.677Z,18.04
2019-02-11T00:05:58.434Z,18.03
2019-02-11T00:06:57.162Z,18.04
2019-02-11T00:07:56.988Z,18.03
2019-02-11T00:08:57.046Z,18.03
2019-02-11T00:09:57.099Z,18.02
2019-02-11T00:10:57.293Z,18.02
2019-02-11T00:11:56.994Z,18.02
2019-02-11T00:12:57.129Z,18.01
2019-02-11T00:13:57.328Z,18.01
2019-02-11T00:14:56.922Z,17.99
2019-02-11T00:15:57.049Z,17.99
2019-02-11T00:16:57.044Z,17.98
2019-02-11T00:17:56.929Z,17.98
2019-02-11T00:18:56.898Z,17.98
2019-02-11T00:19:57.153Z,17.98
2019-02-11T00:20:57.334Z,17.98
2019-02-11T00:21:57.166Z,17.98
2019-02-11T00:22:57.480Z,17.97
2019-02-11T00:23:57.908Z,17.96
2019-02-11T00:24:57.767Z,17.96
2019-02-11T00:25:57.103Z,17.95
2019-02-11T00:26:57.435Z,17.94
2019-02-11T00:27:56.793Z,17.94
2019-02-11T00:28:57.425Z,17.93
2019-02-11T00:29:57.369Z,17.92
2019-02-11T00:30:56.875Z,17.93
2019-02-11T00:31:57.877Z,17.92
2019-02-11T00:32:58.145Z,17.92
2019-02-11T00:33:57.180Z,17.92
2019-02-11T00:34:58.324Z,17.91
2019-02-11T00:35:58.491Z,17.91
2019-02-11T00:36:57.081Z,17.91
2019-02-11T00:37:58.943Z,17.9
2019-02-11T00:38:57.004Z,17.89
2019-02-11T00:39:56.830Z,17.89
2019-02-11T00:40:57.513Z,17.9
2019-02-11T00:41:58.751Z,17.89
2019-02-11T00:42:57.177Z,17.87
2019-02-11T00:43:57.642Z,17.88
2019-02-11T00:44:56.843Z,17.86
2019-02-11T00:45:57.064Z,17.87
2019-02-11T00:46:56.644Z,17.86
2019-02-11T00:47:56.869Z,17.86
2019-02-11T00:48:57.084Z,17.86
2019-02-11T00:49:57.029Z,17.86
2019-02-11T00:50:57.390Z,17.86
2019-02-11T00:51:57.789Z,17.86
2019-02-11T00:52:57.196Z,17.85
2019-02-11T00:53:58.796Z,17.84
2019-02-11T00:54:57.244Z,17.84
2019-02-11T00:55:57.225Z,17.84
2019-02-11T00:56:57.120Z,17.83
2019-02-11T00:57:57.731Z,17.84
2019-02-11T00:58:57.638Z,17.83
2019-02-11T00:59:58.897Z,17.82
2019-02-11T01:00:57.371Z,17.81
2019-02-11T01:01:56.947Z,17.8
2019-02-11T01:02:57.203Z,17.8
2019-02-11T01:03:56.873Z,17.8
2019-02-11T01:04:56.853Z,17.8
2019-02-11T01:05:57.201Z,17.79
2019-02-11T01:06:57.185Z,17.79
2019-02-11T01:07:57.627Z,17.79
2019-02-11T01:08:56.874Z,17.79
2019-02-11T01:09:57.360Z,17.78
2019-02-11T01:10:57.541Z,17.78
2019-02-11T01:11:56.898Z,17.78
2019-02-11T01:12:57.730Z,17.77
2019-02-11T01:13:57.444Z,17.76
2019-02-11T01:14:57.758Z,17.75
2019-02-11T01:15:57.478Z,17.75
2019-02-11T01:16:57.237Z,17.76
2019-02-11T01:17:56.984Z,17.75
2019-02-11T01:18:57.829Z,17.74
2019-02-11T01:19:57.319Z,17.74
2019-02-11T01:20:57.091Z,17.74
2019-02-11T01:21:58.662Z,17.73
2019-02-11T01:22:57.432Z,17.73
2019-02-11T01:23:56.959Z,17.73
2019-02-11T01:24:56.661Z,17.73
2019-02-11T01:25:56.967Z,17.73
2019-02-11T01:26:57.458Z,17.73
2019-02-11T01:27:57.243Z,17.72
2019-02-11T01:28:57.174Z,17.72
2019-02-11T01:29:56.911Z,17.7
2019-02-11T01:30:57.373Z,17.7
2019-02-11T01:31:57.462Z,17.71
2019-02-11T01:32:56.859Z,17.7
2019-02-11T01:33:57.116Z,17.7
2019-02-11T01:34:57.380Z,17.69
2019-02-11T01:35:57.179Z,17.68
2019-02-11T01:36:57.219Z,17.69
2019-02-11T01:37:57.035Z,17.68
2019-02-11T01:38:57.419Z,17.68
2019-02-11T01:39:57.233Z,17.68
2019-02-11T01:40:57.331Z,17.67
2019-02-11T01:41:57.531Z,17.68
2019-02-11T01:42:57.408Z,17.67
2019-02-11T01:43:56.733Z,17.67
2019-02-11T01:44:57.346Z,17.67
2019-02-11T01:45:57.860Z,17.67
2019-02-11T01:46:56.843Z,17.67
2019-02-11T01:47:58.860Z,17.66
2019-02-11T01:48:57.007Z,17.66
2019-02-11T01:49:56.915Z,17.65
2019-02-11T01:50:58.881Z,17.65
2019-02-11T01:51:56.701Z,17.65
2019-02-11T01:52:56.759Z,17.65
2019-02-11T01:53:56.658Z,17.64
2019-02-11T01:54:57.145Z,17.64
2019-02-11T01:55:56.986Z,17.65
2019-02-11T01:56:56.860Z,17.63
2019-02-11T01:57:57.233Z,17.62
2019-02-11T01:58:57.226Z,17.62
2019-02-11T01:59:56.805Z,17.63
2019-02-11T02:00:57.049Z,17.61
2019-02-11T02:01:56.989Z,17.61
2019-02-11T02:02:56.966Z,17.61
2019-02-11T02:03:57.348Z,17.61
2019-02-11T02:04:56.992Z,17.61
2019-02-11T02:05:57.316Z,17.6
2019-02-11T02:06:57.955Z,17.6
2019-02-11T02:07:58.063Z,17.6
2019-02-11T02:08:57.347Z,17.6
2019-02-11T02:09:56.889Z,17.6
2019-02-11T02:10:56.888Z,17.59
2019-02-11T02:11:57.477Z,17.59
2019-02-11T02:12:58.739Z,17.58
2019-02-11T02:13:57.030Z,17.58
2019-02-11T02:14:56.847Z,17.58
2019-02-11T02:15:57.468Z,17.58
2019-02-11T02:16:57.409Z,17.57
2019-02-11T02:17:57.216Z,17.57
2019-02-11T02:18:56.876Z,17.57
2019-02-11T02:19:57.288Z,17.56
2019-02-11T02:20:57.205Z,17.56
2019-02-11T02:21:57.529Z,17.56
2019-02-11T02:22:57.022Z,17.55
2019-02-11T02:23:56.831Z,17.55
2019-02-11T02:24:58.870Z,17.54
2019-02-11T02:25:57.404Z,17.54
2019-02-11T02:26:56.938Z,17.55
2019-02-11T02:27:56.984Z,17.54
2019-02-11T02:28:56.969Z,17.54
2019-02-11T02:29:57.590Z,17.54
2019-02-11T02:30:57.029Z,17.53
2019-02-11T02:31:56.781Z,17.53
2019-02-11T02:32:57.110Z,17.53
2019-02-11T02:33:57.323Z,17.53
2019-02-11T02:34:57.148Z,17.51
2019-02-11T02:35:57.696Z,17.52
2019-02-11T02:36:56.830Z,17.51
2019-02-11T02:37:57.249Z,17.5
2019-02-11T02:38:57.466Z,17.5
2019-02-11T02:39:56.972Z,17.5
2019-02-11T02:40:56.924Z,17.5
2019-02-11T02:41:56.740Z,17.5
2019-02-11T02:42:56.934Z,17.49
2019-02-11T02:43:57.523Z,17.49
2019-02-11T02:44:57.233Z,17.49
2019-02-11T02:45:57.435Z,17.49
2019-02-11T02:46:57.197Z,17.48
2019-02-11T02:47:56.902Z,17.48
2019-02-11T02:48:58.153Z,17.47
2019-02-11T02:49:57.960Z,17.48
2019-02-11T02:50:57.453Z,17.47
2019-02-11T02:51:57.151Z,17.47
2019-02-11T02:52:57.056Z,17.47
2019-02-11T02:53:57.757Z,17.46
2019-02-11T02:54:56.693Z,17.45
2019-02-11T02:55:58.772Z,17.45
2019-02-11T02:56:57.394Z,17.45
2019-02-11T02:57:58.764Z,17.44
2019-02-11T02:58:57.496Z,17.45
2019-02-11T02:59:57.178Z,17.44
2019-02-11T03:00:57.234Z,17.43
2019-02-11T03:01:56.954Z,17.43
2019-02-11T03:02:57.117Z,17.42
2019-02-11T03:03:56.747Z,17.42
2019-02-11T03:04:56.986Z,17.43
2019-02-11T03:05:57.381Z,17.42
2019-02-11T03:06:58.683Z,17.42
2019-02-11T03:07:57.710Z,17.42
2019-02-11T03:08:57.317Z,17.42
2019-02-11T03:09:57.676Z,17.41
2019-02-11T03:10:56.850Z,17.41
2019-02-11T03:11:56.999Z,17.41
2019-02-11T03:12:57.504Z,17.4
2019-02-11T03:14:06.816Z,17.39
2019-02-11T03:14:57.081Z,17.39
2019-02-11T03:15:57.036Z,17.39
2019-02-11T03:16:57.405Z,17.39
2019-02-11T03:17:57.024Z,17.39
2019-02-11T03:18:57.389Z,17.38
2019-02-11T03:19:56.733Z,17.38
2019-02-11T03:20:56.885Z,17.38
2019-02-11T03:21:58.919Z,17.37
2019-02-11T03:22:58.735Z,17.37
2019-02-11T03:23:57.938Z,17.37
2019-02-11T03:24:57.120Z,17.36
2019-02-11T03:25:57.480Z,17.36
2019-02-11T03:26:56.992Z,17.36
2019-02-11T03:27:56.805Z,17.36
2019-02-11T03:28:57.057Z,17.36
2019-02-11T03:29:57.004Z,17.36
2019-02-11T03:30:56.951Z,17.36
2019-02-11T03:32:00.455Z,17.35
2019-02-11T03:32:56.811Z,17.34
2019-02-11T03:33:57.011Z,17.34
2019-02-11T03:34:57.675Z,17.34
2019-02-11T03:35:56.722Z,17.33
2019-02-11T03:36:57.055Z,17.33
2019-02-11T03:37:57.038Z,17.32
2019-02-11T03:38:56.802Z,17.32
2019-02-11T03:39:56.941Z,17.32
2019-02-11T03:40:57.036Z,17.31
2019-02-11T03:41:57.094Z,17.32
2019-02-11T03:42:57.107Z,17.31
2019-02-11T03:43:58.682Z,17.31
2019-02-11T03:44:56.939Z,17.3
2019-02-11T03:45:57.221Z,17.31
2019-02-11T03:46:56.839Z,17.3
2019-02-11T03:47:57.636Z,17.3
2019-02-11T03:48:57.298Z,17.29
2019-02-11T03:49:56.981Z,17.29
2019-02-11T03:50:56.949Z,17.29
2019-02-11T03:51:57.170Z,17.29
2019-02-11T03:52:58.393Z,17.29
2019-02-11T03:53:57.460Z,17.29
2019-02-11T03:54:57.087Z,17.29
2019-02-11T03:55:57.145Z,17.29
2019-02-11T03:56:58.800Z,17.28
2019-02-11T03:57:57.212Z,17.28
2019-02-11T03:58:56.952Z,17.28
2019-02-11T03:59:56.933Z,17.28
2019-02-11T04:00:57.176Z,17.28
2019-02-11T04:01:58.787Z,17.28
2019-02-11T04:02:57.146Z,17.28
2019-02-11T04:03:56.837Z,17.28
2019-02-11T04:04:56.947Z,17.28
2019-02-11T04:05:56.765Z,17.27
2019-02-11T04:06:57.795Z,17.27
2019-02-11T04:07:57.174Z,17.27
2019-02-11T04:08:56.985Z,17.27
2019-02-11T04:09:56.814Z,17.26
2019-02-11T04:10:57.307Z,17.25
2019-02-11T04:11:57.562Z,17.24
2019-02-11T04:12:57.346Z,17.24
2019-02-11T04:13:56.981Z,17.24
2019-02-11T04:14:57.076Z,17.23
2019-02-11T04:15:57.284Z,17.23
2019-02-11T04:16:56.719Z,17.23
2019-02-11T04:17:56.927Z,17.23
2019-02-11T04:18:57.244Z,17.23
2019-02-11T04:19:56.879Z,17.23
2019-02-11T04:20:57.218Z,17.23
2019-02-11T04:21:56.788Z,17.23
2019-02-11T04:22:56.852Z,17.22
2019-02-11T04:23:57.182Z,17.23
2019-02-11T04:24:58.331Z,17.22
2019-02-11T04:25:57.420Z,17.21
2019-02-11T04:26:57.265Z,17.2
2019-02-11T04:27:57.480Z,17.21
2019-02-11T04:28:57.149Z,17.2
2019-02-11T04:29:57.107Z,17.2
2019-02-11T04:30:56.959Z,17.2
2019-02-11T04:31:57.335Z,17.2
2019-02-11T04:32:57.123Z,17.2
2019-02-11T04:33:58.518Z,17.2
2019-02-11T04:34:57.682Z,17.2
2019-02-11T04:35:57.187Z,17.19
2019-02-11T04:36:56.889Z,17.19
2019-02-11T04:37:56.943Z,17.18
2019-02-11T04:38:57.185Z,17.19
2019-02-11T04:39:57.417Z,17.19
2019-02-11T04:40:57.731Z,17.19
2019-02-11T04:41:57.010Z,17.19
2019-02-11T04:42:57.174Z,17.19
2019-02-11T04:43:56.703Z,17.19
2019-02-11T04:44:57.747Z,17.2
2019-02-11T04:45:56.820Z,17.2
2019-02-11T04:46:57.149Z,17.2
2019-02-11T04:47:56.986Z,17.22
2019-02-11T04:48:57.249Z,17.22
2019-02-11T04:49:56.889Z,17.22
2019-02-11T04:50:57.008Z,17.22
2019-02-11T04:51:59.203Z,17.23
2019-02-11T04:52:57.494Z,17.23
2019-02-11T04:53:57.808Z,17.24
2019-02-11T04:54:56.710Z,17.25
2019-02-11T04:55:57.287Z,17.26
2019-02-11T04:56:58.634Z,17.27
2019-02-11T04:57:56.681Z,17.28
2019-02-11T04:58:57.318Z,17.29
2019-02-11T04:59:57.439Z,17.29
2019-02-11T05:00:58.713Z,17.3
2019-02-11T05:01:56.903Z,17.31
2019-02-11T05:02:57.363Z,17.32
2019-02-11T05:03:57.357Z,17.33
2019-02-11T05:04:56.960Z,17.35
2019-02-11T05:05:56.988Z,17.36
2019-02-11T05:06:57.189Z,17.37
2019-02-11T05:07:57.758Z,17.39
2019-02-11T05:08:57.605Z,17.41
2019-02-11T05:09:57.634Z,17.42
2019-02-11T05:10:56.704Z,17.44
2019-02-11T05:11:57.354Z,17.47
2019-02-11T05:12:56.833Z,17.48
2019-02-11T05:13:57.084Z,17.49
2019-02-11T05:14:57.341Z,17.51
2019-02-11T05:15:56.714Z,17.53
2019-02-11T05:16:57.067Z,17.54
2019-02-11T05:17:57.492Z,17.56
2019-02-11T05:18:57.209Z,17.58
2019-02-11T05:19:57.220Z,17.61
2019-02-11T05:20:56.936Z,17.61
2019-02-11T05:21:56.738Z,17.62
2019-02-11T05:22:57.196Z,17.64
2019-02-11T05:23:56.764Z,17.66
2019-02-11T05:24:57.940Z,17.67
2019-02-11T05:25:56.922Z,17.7
2019-02-11T05:26:57.639Z,17.71
2019-02-11T05:27:57.211Z,17.73
2019-02-11T05:28:56.851Z,17.73
2019-02-11T05:29:57.750Z,17.74
2019-02-11T05:30:57.211Z,17.76
2019-02-11T05:31:57.265Z,17.78
2019-02-11T05:32:57.091Z,17.79
2019-02-11T05:33:56.817Z,17.8
2019-02-11T05:34:57.121Z,17.81
2019-02-11T05:35:57.414Z,17.83
2019-02-11T05:36:57.235Z,17.84
2019-02-11T05:37:56.852Z,17.86
2019-02-11T05:38:56.739Z,17.86
2019-02-11T05:39:56.929Z,17.88
2019-02-11T05:40:56.719Z,17.88
2019-02-11T05:41:57.010Z,17.9
2019-02-11T05:42:57.324Z,17.91
2019-02-11T05:43:56.762Z,17.92
2019-02-11T05:44:56.994Z,17.94
2019-02-11T05:45:57.083Z,17.95
2019-02-11T05:46:56.792Z,17.95
2019-02-11T05:47:57.367Z,17.96
2019-02-11T05:48:57.129Z,17.98
2019-02-11T05:49:57.314Z,17.98
2019-02-11T05:50:57.642Z,17.98
2019-02-11T05:51:56.741Z,17.99
2019-02-11T05:52:56.933Z,18
2019-02-11T05:53:56.772Z,18.02
2019-02-11T05:54:57.014Z,18.03
2019-02-11T05:55:57.034Z,18.04
2019-02-11T05:56:57.141Z,18.04
2019-02-11T05:57:57.231Z,18.05
2019-02-11T05:58:58.758Z,18.05
2019-02-11T05:59:57.576Z,18.06
2019-02-11T06:00:56.924Z,18.07
2019-02-11T06:01:57.242Z,18.09
2019-02-11T06:02:56.647Z,18.11
2019-02-11T06:03:56.981Z,18.11
2019-02-11T06:04:56.857Z,18.12
2019-02-11T06:05:57.284Z,18.13
2019-02-11T06:06:57.607Z,18.14
2019-02-11T06:07:57.924Z,18.15
2019-02-11T06:08:56.826Z,18.16
2019-02-11T06:09:56.809Z,18.17
2019-02-11T06:10:57.027Z,18.18
2019-02-11T06:11:56.964Z,18.19
2019-02-11T06:12:57.763Z,18.2
2019-02-11T06:13:56.602Z,18.22
2019-02-11T06:15:05.085Z,18.22
2019-02-11T06:15:57.341Z,18.23
2019-02-11T06:16:56.720Z,18.23
2019-02-11T06:17:57.070Z,18.24
2019-02-11T06:18:57.487Z,18.25
2019-02-11T06:19:56.840Z,18.25
2019-02-11T06:20:56.828Z,18.27
2019-02-11T06:21:57.612Z,18.27
2019-02-11T06:22:57.644Z,18.27
2019-02-11T06:23:57.770Z,18.29
2019-02-11T06:24:57.122Z,18.29
2019-02-11T06:25:56.895Z,18.26
2019-02-11T06:26:58.057Z,18.27
2019-02-11T06:27:58.600Z,18.25
2019-02-11T06:28:57.236Z,18.26
2019-02-11T06:29:58.534Z,18.25
2019-02-11T06:30:57.073Z,18.24
2019-02-11T06:31:57.131Z,18.23
2019-02-11T06:32:57.122Z,18.23
2019-02-11T06:33:57.403Z,18.23
2019-02-11T06:34:56.815Z,18.23
2019-02-11T06:35:56.895Z,18.24
2019-02-11T06:36:57.195Z,18.23
2019-02-11T06:37:56.816Z,18.23
2019-02-11T06:38:57.028Z,18.23
2019-02-11T06:39:56.890Z,18.22
2019-02-11T06:40:57.874Z,18.22
2019-02-11T06:41:57.413Z,18.23
2019-02-11T06:42:57.020Z,18.21
2019-02-11T06:43:56.965Z,18.2
2019-02-11T06:44:57.823Z,18.21
2019-02-11T06:45:56.943Z,18.2
2019-02-11T06:46:56.883Z,18.19
2019-02-11T06:47:56.810Z,18.19
2019-02-11T06:48:57.288Z,18.18
2019-02-11T06:49:56.719Z,18.18
2019-02-11T06:50:56.858Z,18.18
2019-02-11T06:51:57.517Z,18.17
2019-02-11T06:52:56.749Z,18.17
2019-02-11T06:53:56.852Z,18.17
2019-02-11T06:54:56.896Z,18.17
2019-02-11T06:55:56.926Z,18.17
2019-02-11T06:56:57.763Z,18.17
2019-02-11T06:57:57.010Z,18.17
2019-02-11T06:58:56.966Z,18.16
2019-02-11T06:59:56.827Z,18.15
2019-02-11T07:00:58.022Z,18.15
2019-02-11T07:01:56.994Z,18.14
2019-02-11T07:02:57.070Z,18.15
2019-02-11T07:03:56.765Z,18.14
2019-02-11T07:04:57.445Z,18.14
2019-02-11T07:05:56.795Z,18.14
2019-02-11T07:06:56.888Z,18.13
2019-02-11T07:07:58.737Z,18.13
2019-02-11T07:08:56.910Z,18.13
2019-02-11T07:09:57.219Z,18.13
2019-02-11T07:10:56.855Z,18.12
2019-02-11T07:11:57.079Z,18.12
2019-02-11T07:12:56.829Z,18.11
2019-02-11T07:13:57.268Z,18.12
2019-02-11T07:14:56.660Z,18.11
2019-02-11T07:15:56.719Z,18.1
2019-02-11T07:16:56.714Z,18.12
2019-02-11T07:17:56.779Z,18.12
2019-02-11T07:18:56.782Z,18.11
2019-02-11T07:19:56.679Z,18.11
2019-02-11T07:20:56.872Z,18.11
2019-02-11T07:21:57.589Z,18.1
2019-02-11T07:22:57.105Z,18.11
2019-02-11T07:23:56.983Z,18.1
2019-02-11T07:24:57.055Z,18.1
2019-02-11T07:25:56.926Z,18.1
2019-02-11T07:26:57.077Z,18.1
2019-02-11T07:27:57.433Z,18.1
2019-02-11T07:28:57.131Z,18.1
2019-02-11T07:29:56.976Z,18.1
2019-02-11T07:30:56.569Z,18.1
2019-02-11T07:31:56.848Z,18.1
2019-02-11T07:32:57.188Z,18.1
2019-02-11T07:33:56.842Z,18.1
2019-02-11T07:34:56.750Z,18.1
2019-02-11T07:35:57.148Z,18.1
2019-02-11T07:36:57.156Z,18.1
2019-02-11T07:37:56.667Z,18.11
2019-02-11T07:38:57.246Z,18.11
2019-02-11T07:39:57.352Z,18.1
2019-02-11T07:40:57.130Z,18.11
2019-02-11T07:41:57.262Z,18.11
2019-02-11T07:42:57.266Z,18.11
2019-02-11T07:43:56.834Z,18.11
2019-02-11T07:44:57.131Z,18.12
2019-02-11T07:45:56.728Z,18.12
2019-02-11T07:46:57.350Z,18.11
2019-02-11T07:47:56.697Z,18.11
2019-02-11T07:48:56.743Z,18.1
2019-02-11T07:49:58.698Z,18.1
2019-02-11T07:50:56.631Z,18.11
2019-02-11T07:51:57.197Z,18.12
2019-02-11T07:52:57.290Z,18.12
2019-02-11T07:53:56.993Z,18.12
2019-02-11T07:54:56.732Z,18.11
2019-02-11T07:55:57.339Z,18.11
2019-02-11T07:56:56.909Z,18.11
2019-02-11T07:57:57.484Z,18.12
2019-02-11T07:58:56.924Z,18.12
2019-02-11T07:59:57.653Z,18.13
2019-02-11T08:00:57.078Z,18.13
2019-02-11T08:01:57.342Z,18.13
2019-02-11T08:02:57.818Z,18.14
2019-02-11T08:03:57.403Z,18.15
2019-02-11T08:04:57.344Z,18.15
2019-02-11T08:05:56.834Z,18.15
2019-02-11T08:06:56.981Z,18.16
2019-02-11T08:07:57.669Z,18.16
2019-02-11T08:08:56.721Z,18.17
2019-02-11T08:09:57.243Z,18.17
2019-02-11T08:10:56.781Z,18.17
2019-02-11T08:11:57.308Z,18.17
2019-02-11T08:12:56.751Z,18.17
2019-02-11T08:13:56.772Z,18.18
2019-02-11T08:14:56.880Z,18.17
2019-02-11T08:15:57.703Z,18.17
2019-02-11T08:16:56.815Z,18.17
2019-02-11T08:17:58.486Z,18.17
2019-02-11T08:18:57.013Z,18.17
2019-02-11T08:19:58.716Z,18.18
2019-02-11T08:20:57.453Z,18.19
2019-02-11T08:21:57.822Z,18.19
2019-02-11T08:22:57.074Z,18.19
2019-02-11T08:23:56.885Z,18.19
2019-02-11T08:24:57.487Z,18.18
2019-02-11T08:25:57.184Z,18.2
2019-02-11T08:26:57.010Z,18.2
2019-02-11T08:27:56.790Z,18.19
2019-02-11T08:28:57.089Z,18.2
2019-02-11T08:29:57.123Z,18.2
2019-02-11T08:30:57.037Z,18.2
2019-02-11T08:31:56.891Z,18.21
2019-02-11T08:32:57.426Z,18.21
2019-02-11T08:33:58.158Z,18.2
2019-02-11T08:34:57.634Z,18.21
2019-02-11T08:35:57.199Z,18.2
2019-02-11T08:36:57.039Z,18.2
2019-02-11T08:37:58.543Z,18.21
2019-02-11T08:38:56.967Z,18.21
2019-02-11T08:39:57.274Z,18.2
2019-02-11T08:40:56.762Z,18.2
2019-02-11T08:41:56.879Z,18.2
2019-02-11T08:42:57.803Z,18.19
2019-02-11T08:43:58.614Z,18.2
2019-02-11T08:44:57.204Z,18.19
2019-02-11T08:45:57.691Z,18.19
2019-02-11T08:46:56.941Z,18.18
2019-02-11T08:47:56.779Z,18.19
2019-02-11T08:48:57.401Z,18.17
2019-02-11T08:49:56.717Z,18.19
2019-02-11T08:50:56.669Z,18.18
2019-02-11T08:51:57.496Z,18.18
2019-02-11T08:52:57.256Z,18.18
2019-02-11T08:53:57.520Z,18.17
2019-02-11T08:54:57.553Z,18.17
2019-02-11T08:55:57.189Z,18.17
2019-02-11T08:56:57.760Z,18.17
2019-02-11T08:57:56.937Z,18.17
2019-02-11T08:58:56.773Z,18.17
2019-02-11T08:59:57.450Z,18.17
2019-02-11T09:00:57.422Z,18.17
2019-02-11T09:01:58.528Z,18.17
2019-02-11T09:02:58.614Z,18.17
2019-02-11T09:03:57.260Z,18.17
2019-02-11T09:04:56.702Z,18.16
2019-02-11T09:05:56.784Z,18.16
2019-02-11T09:06:58.738Z,18.16
2019-02-11T09:07:57.195Z,18.17
2019-02-11T09:08:57.411Z,18.16
2019-02-11T09:09:56.778Z,18.15
2019-02-11T09:10:57.003Z,18.15
2019-02-11T09:11:56.987Z,18.14
2019-02-11T09:12:57.115Z,18.15
2019-02-11T09:13:56.946Z,18.14
2019-02-11T09:14:56.879Z,18.14
2019-02-11T09:15:56.573Z,18.14
2019-02-11T09:16:57.264Z,18.14
2019-02-11T09:17:57.475Z,18.13
2019-02-11T09:18:56.939Z,18.13
2019-02-11T09:19:57.267Z,18.13
2019-02-11T09:20:57.169Z,18.12
2019-02-11T09:21:57.023Z,18.12
2019-02-11T09:22:56.772Z,18.13
2019-02-11T09:23:56.785Z,18.13
2019-02-11T09:24:57.009Z,18.12
2019-02-11T09:25:57.725Z,18.12
2019-02-11T09:26:57.030Z,18.12
2019-02-11T09:27:57.022Z,18.13
2019-02-11T09:28:56.715Z,18.12
2019-02-11T09:29:57.032Z,18.12
2019-02-11T09:30:57.355Z,18.11
2019-02-11T09:31:57.582Z,18.11
2019-02-11T09:32:57.049Z,18.11
2019-02-11T09:33:56.955Z,18.11
2019-02-11T09:34:57.653Z,18.11
2019-02-11T09:35:57.476Z,18.11
2019-02-11T09:36:57.826Z,18.11
2019-02-11T09:37:56.838Z,18.11
2019-02-11T09:38:56.815Z,18.11
2019-02-11T09:39:57.052Z,18.11
2019-02-11T09:40:57.216Z,18.11
2019-02-11T09:41:57.476Z,18.11
2019-02-11T09:42:56.966Z,18.11
2019-02-11T09:43:57.061Z,18.11
2019-02-11T09:44:57.349Z,18.13
2019-02-11T09:46:04.413Z,18.17
2019-02-11T09:46:57.598Z,18.19
2019-02-11T09:47:57.076Z,18.18
2019-02-11T09:48:57.184Z,18.19
2019-02-11T09:49:56.989Z,18.2
2019-02-11T09:50:56.799Z,18.22
2019-02-11T09:51:57.107Z,18.23
2019-02-11T09:52:57.003Z,18.24
2019-02-11T09:53:57.230Z,18.26
2019-02-11T09:54:56.735Z,18.27
2019-02-11T09:55:57.236Z,18.29
2019-02-11T09:56:56.750Z,18.3
2019-02-11T09:57:56.889Z,18.32
2019-02-11T09:58:56.999Z,18.34
2019-02-11T09:59:57.468Z,18.35
2019-02-11T10:00:57.477Z,18.37
2019-02-11T10:01:57.139Z,18.39
2019-02-11T10:02:57.475Z,18.41
2019-02-11T10:03:56.657Z,18.42
2019-02-11T10:04:57.689Z,18.44
2019-02-11T10:05:57.113Z,18.46
2019-02-11T10:06:57.099Z,18.48
2019-02-11T10:07:57.100Z,18.48
2019-02-11T10:08:57.124Z,18.51
2019-02-11T10:09:56.992Z,18.52
2019-02-11T10:10:57.437Z,18.54
2019-02-11T10:11:57.226Z,18.55
2019-02-11T10:12:57.231Z,18.58
2019-02-11T10:13:56.956Z,18.59
2019-02-11T10:14:56.810Z,18.6
2019-02-11T10:15:56.965Z,18.56
2019-02-11T10:16:57.176Z,18.54
2019-02-11T10:17:57.160Z,18.58
2019-02-11T10:18:56.646Z,18.6
2019-02-11T10:19:56.808Z,18.61
2019-02-11T10:20:56.695Z,18.64
2019-02-11T10:21:56.602Z,18.66
2019-02-11T10:22:57.320Z,18.66
2019-02-11T10:23:56.820Z,18.67
2019-02-11T10:24:57.120Z,18.68
2019-02-11T10:25:56.873Z,18.71
2019-02-11T10:26:56.559Z,18.71
2019-02-11T10:27:57.201Z,18.72
2019-02-11T10:28:56.774Z,18.75
2019-02-11T10:29:56.959Z,18.76
2019-02-11T10:30:57.284Z,18.76
2019-02-11T10:31:58.509Z,18.78
2019-02-11T10:32:58.561Z,18.79
2019-02-11T10:33:57.078Z,18.79
2019-02-11T10:34:56.932Z,18.8
2019-02-11T10:35:56.811Z,18.84
2019-02-11T10:36:56.896Z,18.84
2019-02-11T10:37:57.070Z,18.84
2019-02-11T10:38:56.686Z,18.87
2019-02-11T10:39:56.888Z,18.88
2019-02-11T10:40:56.834Z,18.9
2019-02-11T10:41:57.265Z,18.9
2019-02-11T10:42:57.149Z,18.9
2019-02-11T10:43:57.633Z,18.91
2019-02-11T10:44:57.812Z,18.93
2019-02-11T10:45:56.923Z,18.94
2019-02-11T10:46:56.754Z,18.95
2019-02-11T10:47:57.067Z,18.96
2019-02-11T10:48:56.856Z,18.97
2019-02-11T10:49:56.705Z,18.99
2019-02-11T10:50:57.016Z,18.99
2019-02-11T10:51:56.918Z,18.99
2019-02-11T10:52:56.986Z,19
2019-02-11T10:53:57.772Z,19.03
2019-02-11T10:54:57.046Z,19.03
2019-02-11T10:55:56.797Z,19.03
2019-02-11T10:56:58.523Z,19.05
2019-02-11T10:57:57.051Z,19.06
2019-02-11T10:58:57.163Z,19.07
2019-02-11T10:59:56.983Z,19.07
2019-02-11T11:00:57.916Z,19.09
2019-02-11T11:01:56.773Z,19.09
2019-02-11T11:02:56.743Z,19.1
2019-02-11T11:03:56.787Z,19.11
2019-02-11T11:04:56.917Z,19.12
2019-02-11T11:05:57.452Z,19.13
2019-02-11T11:06:56.603Z,19.15
2019-02-11T11:07:56.650Z,19.15
2019-02-11T11:08:56.714Z,19.15
2019-02-11T11:09:56.814Z,19.15
2019-02-11T11:10:57.174Z,19.17
2019-02-11T11:11:56.617Z,19.16
2019-02-11T11:12:56.507Z,19.18
2019-02-11T11:13:56.670Z,19.2
2019-02-11T11:14:56.869Z,19.2
2019-02-11T11:15:56.742Z,19.2
2019-02-11T11:16:57.108Z,19.21
2019-02-11T11:17:56.872Z,19.21
2019-02-11T11:18:57.096Z,19.22
2019-02-11T11:19:56.815Z,19.21
2019-02-11T11:20:58.450Z,19.23
2019-02-11T11:21:57.124Z,19.23
2019-02-11T11:22:57.232Z,19.25
2019-02-11T11:23:58.363Z,19.25
2019-02-11T11:24:57.029Z,19.26
2019-02-11T11:25:56.936Z,19.27
2019-02-11T11:26:57.058Z,19.27
2019-02-11T11:27:57.049Z,19.27
2019-02-11T11:28:57.225Z,19.28
2019-02-11T11:29:56.804Z,19.28
2019-02-11T11:30:57.171Z,19.3
2019-02-11T11:31:58.181Z,19.3
2019-02-11T11:32:57.895Z,19.31
2019-02-11T11:33:56.451Z,19.31
2019-02-11T11:34:56.731Z,19.33
2019-02-11T11:35:56.674Z,19.33
2019-02-11T11:36:56.927Z,19.33
2019-02-11T11:37:57.370Z,19.34
2019-02-11T11:38:57.065Z,19.34
2019-02-11T11:39:57.066Z,19.34
2019-02-11T11:40:57.053Z,19.35
2019-02-11T11:41:56.960Z,19.36
2019-02-11T11:42:56.965Z,19.38
2019-02-11T11:43:56.733Z,19.39
2019-02-11T11:44:57.315Z,19.37
2019-02-11T11:45:56.893Z,19.35
2019-02-11T11:46:56.893Z,19.36
2019-02-11T11:47:56.815Z,19.35
2019-02-11T11:48:57.016Z,19.36
2019-02-11T11:49:57.013Z,19.34
2019-02-11T11:50:56.934Z,19.35
2019-02-11T11:51:56.969Z,19.35
2019-02-11T11:52:57.041Z,19.35
2019-02-11T11:53:56.770Z,19.37
2019-02-11T11:54:56.968Z,19.38
2019-02-11T11:55:57.091Z,19.38
2019-02-11T11:56:59.896Z,19.39
2019-02-11T11:57:57.061Z,19.39
2019-02-11T11:58:57.099Z,19.39
2019-02-11T11:59:56.969Z,19.39
2019-02-11T12:00:57.145Z,19.39
2019-02-11T12:01:57.589Z,19.4
2019-02-11T12:03:06.602Z,19.42
2019-02-11T12:03:58.838Z,19.42
2019-02-11T12:04:57.106Z,19.42
2019-02-11T12:05:57.275Z,19.43
2019-02-11T12:06:57.122Z,19.43
2019-02-11T12:07:56.862Z,19.43
2019-02-11T12:08:59.858Z,19.51
2019-02-11T12:09:57.246Z,19.46
2019-02-11T12:10:56.938Z,19.45
2019-02-11T12:11:56.970Z,19.44
2019-02-11T12:12:56.776Z,19.45
2019-02-11T12:13:57.368Z,19.45
2019-02-11T12:14:56.542Z,19.45
2019-02-11T12:15:56.922Z,19.45
2019-02-11T12:17:03.836Z,19.44
2019-02-11T12:17:57.655Z,19.45
2019-02-11T12:18:57.437Z,19.45
2019-02-11T12:19:58.776Z,19.45
2019-02-11T12:20:57.504Z,19.45
2019-02-11T12:21:56.837Z,19.45
2019-02-11T12:22:57.058Z,19.45
2019-02-11T12:23:58.580Z,19.45
2019-02-11T12:24:56.832Z,19.44
2019-02-11T12:25:56.724Z,19.44
2019-02-11T12:26:57.126Z,19.44
2019-02-11T12:27:57.101Z,19.44
2019-02-11T12:28:56.884Z,19.44
2019-02-11T12:29:56.612Z,19.44
2019-02-11T12:30:57.187Z,19.44
2019-02-11T12:31:57.201Z,19.44
2019-02-11T12:32:57.410Z,19.44
2019-02-11T12:33:56.943Z,19.44
2019-02-11T12:34:56.460Z,19.43
2019-02-11T12:35:57.640Z,19.43
2019-02-11T12:36:57.652Z,19.43
2019-02-11T12:37:56.777Z,19.43
2019-02-11T12:38:57.015Z,19.43
2019-02-11T12:39:56.865Z,19.42
2019-02-11T12:40:56.863Z,19.41
2019-02-11T12:41:57.301Z,19.42
2019-02-11T12:42:56.720Z,19.41
2019-02-11T12:43:57.291Z,19.41
2019-02-11T12:44:57.073Z,19.41
2019-02-11T12:45:57.383Z,19.41
2019-02-11T12:47:15.676Z,19.42
2019-02-11T12:47:56.755Z,19.42
2019-02-11T12:48:56.779Z,19.41
2019-02-11T12:49:56.819Z,19.41
2019-02-11T12:50:57.247Z,19.41
2019-02-11T12:51:56.641Z,19.41
2019-02-11T12:52:56.689Z,19.42
2019-02-11T12:53:57.048Z,19.41
2019-02-11T12:54:56.846Z,19.45
2019-02-11T12:56:03.804Z,19.45